sensor_id;sensor_type;location;lat;lon;timestamp;temperature;humidity
16980;DHT22;42288;52.182;21.156;2024-03-23T00:54:42;10.10;99.90
16980;DHT22;42288;52.182;21.156;2024-03-23T00:57:07;10.10;99.90
16980;DHT22;42288;52.182;21.156;2024-03-23T00:59:33;10.00;99.90
16980;DHT22;42288;52.182;21.156;2024-03-23T01:01:58;10.00;99.90
16980;DHT22;42288;52.182;21.156;2024-03-23T01:04:24;10.10;99.90
16980;DHT22;42288;52.182;21.156;2024-03-23T01:06:49;10.10;99.90
16980;DHT22;42288;52.182;21.156;2024-03-23T01:09:15;10.00;99.90
16980;DHT22;42288;52.182;21.156;2024-03-23T01:11:40;9.90;99.90
16980;DHT22;42288;52.182;21.156;2024-03-23T01:14:06;10.00;99.90
16980;DHT22;42288;52.182;21.156;2024-03-23T01:16:32;9.90;99.90
16980;DHT22;42288;52.182;21.156;2024-03-23T01:18:58;9.90;99.90
16980;DHT22;42288;52.182;21.156;2024-03-23T01:21:24;9.90;99.90
16980;DHT22;42288;52.182;21.156;2024-03-23T01:23:49;9.90;99.90
16980;DHT22;42288;52.182;21.156;2024-03-23T01:26:15;9.90;99.90
16980;DHT22;42288;52.182;21.156;2024-03-23T01:28:41;9.90;99.90
16980;DHT22;42288;52.182;21.156;2024-03-23T01:31:06;9.90;99.90
16980;DHT22;42288;52.182;21.156;2024-03-23T01:33:32;9.90;99.90
16980;DHT22;42288;52.182;21.156;2024-03-23T01:35:57;9.90;99.90
16980;DHT22;42288;52.182;21.156;2024-03-23T01:38:23;10.00;99.90
16980;DHT22;42288;52.182;21.156;2024-03-23T01:40:49;9.80;99.90
16980;DHT22;42288;52.182;21.156;2024-03-23T01:43:14;9.80;99.90
16980;DHT22;42288;52.182;21.156;2024-03-23T01:45:40;9.80;99.90
16980;DHT22;42288;52.182;21.156;2024-03-23T01:48:06;9.80;99.90
16980;DHT22;42288;52.182;21.156;2024-03-23T01:50:32;9.90;99.90
16980;DHT22;42288;52.182;21.156;2024-03-23T01:53:01;9.80;99.90
16980;DHT22;42288;52.182;21.156;2024-03-23T01:55:27;9.80;99.90
16980;DHT22;42288;52.182;21.156;2024-03-23T01:57:56;9.80;99.90
16980;DHT22;42288;52.182;21.156;2024-03-23T02:00:22;9.80;99.90
16980;DHT22;42288;52.182;21.156;2024-03-23T02:02:48;9.80;99.90
16980;DHT22;42288;52.182;21.156;2024-03-23T02:05:14;9.80;99.90
16980;DHT22;42288;52.182;21.156;2024-03-23T02:07:41;9.90;99.90
16980;DHT22;42288;52.182;21.156;2024-03-23T02:10:08;9.80;99.90
16980;DHT22;42288;52.182;21.156;2024-03-23T02:12:35;9.80;99.90
16980;DHT22;42288;52.182;21.156;2024-03-23T02:15:01;9.90;99.90
16980;DHT22;42288;52.182;21.156;2024-03-23T02:17:27;9.90;99.90
16980;DHT22;42288;52.182;21.156;2024-03-23T02:19:53;10.00;99.90
16980;DHT22;42288;52.182;21.156;2024-03-23T02:22:18;10.00;99.90
16980;DHT22;42288;52.182;21.156;2024-03-23T02:24:44;10.10;99.90
16980;DHT22;42288;52.182;21.156;2024-03-23T02:27:11;9.90;99.90
16980;DHT22;42288;52.182;21.156;2024-03-23T02:29:37;9.80;99.90
16980;DHT22;42288;52.182;21.156;2024-03-23T02:32:02;10.00;99.90
16980;DHT22;42288;52.182;21.156;2024-03-23T02:34:28;10.00;99.90
16980;DHT22;42288;52.182;21.156;2024-03-23T02:36:54;9.90;99.90
16980;DHT22;42288;52.182;21.156;2024-03-23T02:39:19;9.90;99.90
16980;DHT22;42288;52.182;21.156;2024-03-23T02:41:45;10.00;99.90
16980;DHT22;42288;52.182;21.156;2024-03-23T02:44:10;10.10;99.90
16980;DHT22;42288;52.182;21.156;2024-03-23T02:46:38;9.90;99.90
16980;DHT22;42288;52.182;21.156;2024-03-23T02:49:04;9.90;99.90
16980;DHT22;42288;52.182;21.156;2024-03-23T02:51:30;9.90;99.90
16980;DHT22;42288;52.182;21.156;2024-03-23T02:53:56;10.00;99.90
16980;DHT22;42288;52.182;21.156;2024-03-23T02:56:21;10.10;99.90
16980;DHT22;42288;52.182;21.156;2024-03-23T02:58:47;10.10;99.90
16980;DHT22;42288;52.182;21.156;2024-03-23T03:01:13;10.00;99.90
16980;DHT22;42288;52.182;21.156;2024-03-23T03:03:38;10.00;99.90
16980;DHT22;42288;52.182;21.156;2024-03-23T03:06:04;9.90;99.90
16980;DHT22;42288;52.182;21.156;2024-03-23T03:08:30;10.00;99.90
16980;DHT22;42288;52.182;21.156;2024-03-23T03:10:55;10.00;99.90
16980;DHT22;42288;52.182;21.156;2024-03-23T03:13:21;10.10;99.90
16980;DHT22;42288;52.182;21.156;2024-03-23T03:15:47;10.20;99.90
16980;DHT22;42288;52.182;21.156;2024-03-23T03:18:13;10.30;99.90
16980;DHT22;42288;52.182;21.156;2024-03-23T03:20:39;10.20;99.90
16980;DHT22;42288;52.182;21.156;2024-03-23T03:23:05;10.20;99.90
16980;DHT22;42288;52.182;21.156;2024-03-23T03:25:31;10.30;99.90
16980;DHT22;42288;52.182;21.156;2024-03-23T03:27:56;10.20;99.90
16980;DHT22;42288;52.182;21.156;2024-03-23T03:30:22;10.20;99.90
16980;DHT22;42288;52.182;21.156;2024-03-23T03:32:47;10.30;99.90
16980;DHT22;42288;52.182;21.156;2024-03-23T03:35:14;10.30;99.90
16980;DHT22;42288;52.182;21.156;2024-03-23T03:37:41;10.20;99.90
16980;DHT22;42288;52.182;21.156;2024-03-23T03:40:07;10.20;99.90
16980;DHT22;42288;52.182;21.156;2024-03-23T03:42:34;10.30;99.90
16980;DHT22;42288;52.182;21.156;2024-03-23T03:45:00;10.20;99.90
16980;DHT22;42288;52.182;21.156;2024-03-23T03:47:25;10.20;99.90
16980;DHT22;42288;52.182;21.156;2024-03-23T03:49:51;10.10;99.90
16980;DHT22;42288;52.182;21.156;2024-03-23T03:52:16;10.10;99.90
16980;DHT22;42288;52.182;21.156;2024-03-23T03:54:42;10.00;99.90
16980;DHT22;42288;52.182;21.156;2024-03-23T03:57:07;10.10;99.90
16980;DHT22;42288;52.182;21.156;2024-03-23T03:59:33;10.20;99.90
16980;DHT22;42288;52.182;21.156;2024-03-23T04:01:59;10.20;99.90
16980;DHT22;42288;52.182;21.156;2024-03-23T04:04:25;10.30;99.90
16980;DHT22;42288;52.182;21.156;2024-03-23T04:06:59;10.20;99.90
16980;DHT22;42288;52.182;21.156;2024-03-23T04:09:24;10.20;99.90
16980;DHT22;42288;52.182;21.156;2024-03-23T04:11:50;10.20;99.90
16980;DHT22;42288;52.182;21.156;2024-03-23T04:14:16;10.20;99.90
16980;DHT22;42288;52.182;21.156;2024-03-23T04:16:43;10.20;99.90
16980;DHT22;42288;52.182;21.156;2024-03-23T04:19:08;10.10;99.90
16980;DHT22;42288;52.182;21.156;2024-03-23T04:21:35;10.20;99.90
16980;DHT22;42288;52.182;21.156;2024-03-23T04:24:01;10.20;99.90
16980;DHT22;42288;52.182;21.156;2024-03-23T04:26:27;10.20;99.90
16980;DHT22;42288;52.182;21.156;2024-03-23T04:28:53;10.20;99.90
16980;DHT22;42288;52.182;21.156;2024-03-23T04:31:19;10.30;99.90
16980;DHT22;42288;52.182;21.156;2024-03-23T04:33:44;10.30;99.90
16980;DHT22;42288;52.182;21.156;2024-03-23T04:36:10;10.30;99.90
16980;DHT22;42288;52.182;21.156;2024-03-23T04:38:37;10.30;99.90
16980;DHT22;42288;52.182;21.156;2024-03-23T04:41:03;10.30;99.90
16980;DHT22;42288;52.182;21.156;2024-03-23T04:43:28;10.40;99.90
16980;DHT22;42288;52.182;21.156;2024-03-23T04:45:54;10.30;99.90
16980;DHT22;42288;52.182;21.156;2024-03-23T04:48:21;10.30;99.90
16980;DHT22;42288;52.182;21.156;2024-03-23T04:50:48;10.40;99.90
16980;DHT22;42288;52.182;21.156;2024-03-23T04:53:14;10.30;99.90
16980;DHT22;42288;52.182;21.156;2024-03-23T04:55:41;10.30;99.90
16980;DHT22;42288;52.182;21.156;2024-03-23T04:58:07;10.40;99.90
16980;DHT22;42288;52.182;21.156;2024-03-23T05:00:35;10.20;99.90
16980;DHT22;42288;52.182;21.156;2024-03-23T05:03:01;10.20;99.90
16980;DHT22;42288;52.182;21.156;2024-03-23T05:05:30;10.20;99.90
16980;DHT22;42288;52.182;21.156;2024-03-23T05:07:55;10.20;99.90
16980;DHT22;42288;52.182;21.156;2024-03-23T05:10:21;10.30;99.90
16980;DHT22;42288;52.182;21.156;2024-03-23T05:12:47;10.40;99.90
16980;DHT22;42288;52.182;21.156;2024-03-23T05:15:17;10.40;99.90
16980;DHT22;42288;52.182;21.156;2024-03-23T05:17:43;10.50;99.90
16980;DHT22;42288;52.182;21.156;2024-03-23T05:20:08;10.40;99.90
16980;DHT22;42288;52.182;21.156;2024-03-23T05:22:40;10.40;99.90
16980;DHT22;42288;52.182;21.156;2024-03-23T05:25:06;10.50;99.90
16980;DHT22;42288;52.182;21.156;2024-03-23T05:27:33;10.50;99.90
16980;DHT22;42288;52.182;21.156;2024-03-23T05:30:02;10.50;99.90
16980;DHT22;42288;52.182;21.156;2024-03-23T05:32:29;10.60;99.90
16980;DHT22;42288;52.182;21.156;2024-03-23T05:34:55;10.60;99.90
16980;DHT22;42288;52.182;21.156;2024-03-23T05:37:25;10.60;99.90
16980;DHT22;42288;52.182;21.156;2024-03-23T05:39:51;10.60;99.90
16980;DHT22;42288;52.182;21.156;2024-03-23T05:42:17;10.60;99.90
16980;DHT22;42288;52.182;21.156;2024-03-23T05:44:46;10.60;99.90
16980;DHT22;42288;52.182;21.156;2024-03-23T05:47:12;10.50;99.90
16980;DHT22;42288;52.182;21.156;2024-03-23T05:49:42;10.50;99.90
16980;DHT22;42288;52.182;21.156;2024-03-23T05:52:10;10.60;99.90
16980;DHT22;42288;52.182;21.156;2024-03-23T05:54:36;10.60;99.90
16980;DHT22;42288;52.182;21.156;2024-03-23T05:57:02;10.60;99.90
16980;DHT22;42288;52.182;21.156;2024-03-23T05:59:28;10.60;99.90
16980;DHT22;42288;52.182;21.156;2024-03-23T06:01:54;10.60;99.90
16980;DHT22;42288;52.182;21.156;2024-03-23T06:04:20;10.60;99.90
16980;DHT22;42288;52.182;21.156;2024-03-23T06:06:49;10.60;99.90
16980;DHT22;42288;52.182;21.156;2024-03-23T06:09:15;10.60;99.90
16980;DHT22;42288;52.182;21.156;2024-03-23T06:11:41;10.70;99.90
16980;DHT22;42288;52.182;21.156;2024-03-23T06:14:06;10.70;99.90
16980;DHT22;42288;52.182;21.156;2024-03-23T06:16:32;10.70;99.90
16980;DHT22;42288;52.182;21.156;2024-03-23T06:18:57;10.80;99.90
16980;DHT22;42288;52.182;21.156;2024-03-23T06:21:24;10.80;99.90
16980;DHT22;42288;52.182;21.156;2024-03-23T06:23:52;10.70;99.90
16980;DHT22;42288;52.182;21.156;2024-03-23T06:26:18;10.70;99.90
16980;DHT22;42288;52.182;21.156;2024-03-23T06:28:44;10.80;99.90
16980;DHT22;42288;52.182;21.156;2024-03-23T06:31:10;10.90;99.90
16980;DHT22;42288;52.182;21.156;2024-03-23T06:33:36;10.80;99.90
16980;DHT22;42288;52.182;21.156;2024-03-23T06:36:02;10.80;99.90
16980;DHT22;42288;52.182;21.156;2024-03-23T06:38:28;10.80;99.90
16980;DHT22;42288;52.182;21.156;2024-03-23T06:40:54;10.70;99.90
16980;DHT22;42288;52.182;21.156;2024-03-23T06:43:19;10.80;99.90
16980;DHT22;42288;52.182;21.156;2024-03-23T06:45:55;10.90;99.90
16980;DHT22;42288;52.182;21.156;2024-03-23T06:48:21;10.90;99.90
16980;DHT22;42288;52.182;21.156;2024-03-23T06:50:47;10.90;99.90
16980;DHT22;42288;52.182;21.156;2024-03-23T06:53:14;10.90;99.90
16980;DHT22;42288;52.182;21.156;2024-03-23T06:55:40;10.90;99.90
16980;DHT22;42288;52.182;21.156;2024-03-23T06:58:06;10.90;99.90
16980;DHT22;42288;52.182;21.156;2024-03-23T07:00:32;10.90;99.90
16980;DHT22;42288;52.182;21.156;2024-03-23T07:02:59;10.90;99.90
16980;DHT22;42288;52.182;21.156;2024-03-23T07:05:24;10.90;99.90
16980;DHT22;42288;52.182;21.156;2024-03-23T07:07:50;10.90;99.90
16980;DHT22;42288;52.182;21.156;2024-03-23T07:10:15;10.80;99.90
16980;DHT22;42288;52.182;21.156;2024-03-23T07:12:41;10.90;99.90
16980;DHT22;42288;52.182;21.156;2024-03-23T07:15:07;10.70;99.90
16980;DHT22;42288;52.182;21.156;2024-03-23T07:17:33;10.80;99.90
16980;DHT22;42288;52.182;21.156;2024-03-23T07:20:01;10.80;99.90
16980;DHT22;42288;52.182;21.156;2024-03-23T07:22:32;10.70;99.90
16980;DHT22;42288;52.182;21.156;2024-03-23T07:25:00;10.70;99.90
16980;DHT22;42288;52.182;21.156;2024-03-23T07:27:26;10.80;99.90
16980;DHT22;42288;52.182;21.156;2024-03-23T07:29:52;10.80;99.90
16980;DHT22;42288;52.182;21.156;2024-03-23T07:32:17;10.80;99.90
16980;DHT22;42288;52.182;21.156;2024-03-23T07:34:43;10.90;99.90
16980;DHT22;42288;52.182;21.156;2024-03-23T07:37:10;10.90;99.90
16980;DHT22;42288;52.182;21.156;2024-03-23T07:39:35;10.80;99.90
16980;DHT22;42288;52.182;21.156;2024-03-23T07:42:01;10.70;99.90
16980;DHT22;42288;52.182;21.156;2024-03-23T07:44:27;10.80;99.90
16980;DHT22;42288;52.182;21.156;2024-03-23T07:46:52;10.80;99.90
16980;DHT22;42288;52.182;21.156;2024-03-23T07:49:18;10.70;99.90
16980;DHT22;42288;52.182;21.156;2024-03-23T07:51:44;10.70;99.90
16980;DHT22;42288;52.182;21.156;2024-03-23T07:54:10;10.70;99.90
16980;DHT22;42288;52.182;21.156;2024-03-23T07:56:35;10.70;99.90
16980;DHT22;42288;52.182;21.156;2024-03-23T07:59:01;10.80;99.90
16980;DHT22;42288;52.182;21.156;2024-03-23T08:01:28;10.80;99.90
16980;DHT22;42288;52.182;21.156;2024-03-23T08:03:54;10.80;99.90
16980;DHT22;42288;52.182;21.156;2024-03-23T08:06:20;10.80;99.90
16980;DHT22;42288;52.182;21.156;2024-03-23T08:08:52;10.80;99.90
16980;DHT22;42288;52.182;21.156;2024-03-23T08:11:28;10.90;99.90
16980;DHT22;42288;52.182;21.156;2024-03-23T08:13:54;11.00;99.90
16980;DHT22;42288;52.182;21.156;2024-03-23T08:16:20;11.10;99.90
16980;DHT22;42288;52.182;21.156;2024-03-23T08:18:46;11.10;99.90
16980;DHT22;42288;52.182;21.156;2024-03-23T08:21:11;11.30;99.90
16980;DHT22;42288;52.182;21.156;2024-03-23T08:23:37;11.40;99.90
16980;DHT22;42288;52.182;21.156;2024-03-23T08:26:07;11.60;99.90
16980;DHT22;42288;52.182;21.156;2024-03-23T08:28:34;11.60;99.90
16980;DHT22;42288;52.182;21.156;2024-03-23T08:31:04;11.60;99.90
16980;DHT22;42288;52.182;21.156;2024-03-23T08:33:31;11.70;99.90
16980;DHT22;42288;52.182;21.156;2024-03-23T08:35:58;11.80;99.90
16980;DHT22;42288;52.182;21.156;2024-03-23T08:38:25;11.80;99.90
16980;DHT22;42288;52.182;21.156;2024-03-23T08:41:01;11.70;99.90
16980;DHT22;42288;52.182;21.156;2024-03-23T08:43:28;11.80;99.90
16980;DHT22;42288;52.182;21.156;2024-03-23T08:46:06;11.60;99.90
16980;DHT22;42288;52.182;21.156;2024-03-23T08:48:35;11.70;99.90
16980;DHT22;42288;52.182;21.156;2024-03-23T08:51:06;11.80;99.90
16980;DHT22;42288;52.182;21.156;2024-03-23T08:53:32;12.00;99.90
16980;DHT22;42288;52.182;21.156;2024-03-23T08:55:58;12.40;99.90
16980;DHT22;42288;52.182;21.156;2024-03-23T08:58:25;12.60;99.90
16980;DHT22;42288;52.182;21.156;2024-03-23T09:00:55;12.60;99.90
16980;DHT22;42288;52.182;21.156;2024-03-23T09:03:22;12.70;99.90
16980;DHT22;42288;52.182;21.156;2024-03-23T09:05:48;13.10;99.90
16980;DHT22;42288;52.182;21.156;2024-03-23T09:08:14;13.20;99.90
16980;DHT22;42288;52.182;21.156;2024-03-23T09:10:40;13.30;99.90
16980;DHT22;42288;52.182;21.156;2024-03-23T09:13:06;13.30;99.90
16980;DHT22;42288;52.182;21.156;2024-03-23T09:15:36;13.20;99.90
16980;DHT22;42288;52.182;21.156;2024-03-23T09:18:02;13.30;99.90
16980;DHT22;42288;52.182;21.156;2024-03-23T09:20:28;13.30;99.90
16980;DHT22;42288;52.182;21.156;2024-03-23T09:22:54;13.40;99.90
16980;DHT22;42288;52.182;21.156;2024-03-23T09:25:20;13.40;99.90
16980;DHT22;42288;52.182;21.156;2024-03-23T09:27:48;13.60;99.90
16980;DHT22;42288;52.182;21.156;2024-03-23T09:30:14;13.60;99.90
16980;DHT22;42288;52.182;21.156;2024-03-23T09:32:43;13.70;99.90
16980;DHT22;42288;52.182;21.156;2024-03-23T09:35:08;13.90;99.90
16980;DHT22;42288;52.182;21.156;2024-03-23T09:37:34;13.80;99.90
16980;DHT22;42288;52.182;21.156;2024-03-23T09:39:59;13.90;99.90
16980;DHT22;42288;52.182;21.156;2024-03-23T09:42:25;14.00;99.90
16980;DHT22;42288;52.182;21.156;2024-03-23T09:44:51;14.20;99.90
16980;DHT22;42288;52.182;21.156;2024-03-23T09:47:17;14.30;99.90
16980;DHT22;42288;52.182;21.156;2024-03-23T09:49:43;14.30;99.90
16980;DHT22;42288;52.182;21.156;2024-03-23T09:52:09;14.40;99.90
16980;DHT22;42288;52.182;21.156;2024-03-23T09:54:35;14.30;99.90
16980;DHT22;42288;52.182;21.156;2024-03-23T09:57:01;14.20;99.90
16980;DHT22;42288;52.182;21.156;2024-03-23T09:59:26;14.30;99.90
16980;DHT22;42288;52.182;21.156;2024-03-23T10:01:53;14.10;99.90
16980;DHT22;42288;52.182;21.156;2024-03-23T10:04:39;14.20;99.90
16980;DHT22;42288;52.182;21.156;2024-03-23T10:07:18;14.40;99.90
16980;DHT22;42288;52.182;21.156;2024-03-23T10:09:44;14.60;99.90
16980;DHT22;42288;52.182;21.156;2024-03-23T10:12:11;14.70;99.90
16980;DHT22;42288;52.182;21.156;2024-03-23T10:14:42;14.80;99.90
16980;DHT22;42288;52.182;21.156;2024-03-23T10:17:18;14.90;99.90
16980;DHT22;42288;52.182;21.156;2024-03-23T10:19:49;14.60;99.90
16980;DHT22;42288;52.182;21.156;2024-03-23T10:22:19;14.90;99.90
16980;DHT22;42288;52.182;21.156;2024-03-23T10:24:44;15.30;99.90
16980;DHT22;42288;52.182;21.156;2024-03-23T10:27:15;15.70;99.90
16980;DHT22;42288;52.182;21.156;2024-03-23T10:29:41;15.80;99.90
16980;DHT22;42288;52.182;21.156;2024-03-23T10:32:08;16.10;99.90
16980;DHT22;42288;52.182;21.156;2024-03-23T10:34:35;16.30;99.90
16980;DHT22;42288;52.182;21.156;2024-03-23T10:37:02;16.70;99.90
16980;DHT22;42288;52.182;21.156;2024-03-23T10:39:31;16.60;99.90
16980;DHT22;42288;52.182;21.156;2024-03-23T10:41:58;16.40;99.90
16980;DHT22;42288;52.182;21.156;2024-03-23T10:44:25;16.20;99.90
16980;DHT22;42288;52.182;21.156;2024-03-23T10:46:54;16.60;99.90
16980;DHT22;42288;52.182;21.156;2024-03-23T10:49:34;16.60;99.90
16980;DHT22;42288;52.182;21.156;2024-03-23T10:52:04;17.20;99.90
16980;DHT22;42288;52.182;21.156;2024-03-23T10:54:30;17.10;99.90
16980;DHT22;42288;52.182;21.156;2024-03-23T10:57:10;17.20;99.90
16980;DHT22;42288;52.182;21.156;2024-03-23T10:59:38;17.20;99.90
16980;DHT22;42288;52.182;21.156;2024-03-23T11:02:04;18.00;99.90
16980;DHT22;42288;52.182;21.156;2024-03-23T11:04:37;18.50;99.90
16980;DHT22;42288;52.182;21.156;2024-03-23T11:09:50;18.90;99.90
16980;DHT22;42288;52.182;21.156;2024-03-23T11:14:54;19.00;99.90
16980;DHT22;42288;52.182;21.156;2024-03-23T11:17:21;19.40;99.90
16980;DHT22;42288;52.182;21.156;2024-03-23T11:20:01;19.10;99.90
16980;DHT22;42288;52.182;21.156;2024-03-23T11:25:23;19.50;99.90
16980;DHT22;42288;52.182;21.156;2024-03-23T11:27:51;18.60;99.90
16980;DHT22;42288;52.182;21.156;2024-03-23T11:30:24;18.80;99.90
16980;DHT22;42288;52.182;21.156;2024-03-23T11:32:59;18.90;99.90
16980;DHT22;42288;52.182;21.156;2024-03-23T11:35:29;19.10;99.90
16980;DHT22;42288;52.182;21.156;2024-03-23T11:38:06;19.10;99.90
16980;DHT22;42288;52.182;21.156;2024-03-23T11:40:33;19.30;99.90
16980;DHT22;42288;52.182;21.156;2024-03-23T11:43:03;19.30;99.90
16980;DHT22;42288;52.182;21.156;2024-03-23T11:45:34;19.40;99.90
16980;DHT22;42288;52.182;21.156;2024-03-23T11:48:16;19.70;99.90
16980;DHT22;42288;52.182;21.156;2024-03-23T11:50:49;19.90;99.90
16980;DHT22;42288;52.182;21.156;2024-03-23T11:53:23;20.00;99.90
16980;DHT22;42288;52.182;21.156;2024-03-23T11:55:54;19.40;99.90
16980;DHT22;42288;52.182;21.156;2024-03-23T11:58:21;19.70;99.90
16980;DHT22;42288;52.182;21.156;2024-03-23T12:00:57;19.70;99.90
16980;DHT22;42288;52.182;21.156;2024-03-23T12:03:24;19.80;99.90
16980;DHT22;42288;52.182;21.156;2024-03-23T12:05:54;19.80;99.90
16980;DHT22;42288;52.182;21.156;2024-03-23T12:08:31;19.80;99.90
16980;DHT22;42288;52.182;21.156;2024-03-23T12:11:10;19.50;99.90
16980;DHT22;42288;52.182;21.156;2024-03-23T12:13:37;19.60;99.90
16980;DHT22;42288;52.182;21.156;2024-03-23T12:16:19;20.10;99.90
16980;DHT22;42288;52.182;21.156;2024-03-23T12:18:49;19.80;99.90
16980;DHT22;42288;52.182;21.156;2024-03-23T12:21:16;19.90;99.90
16980;DHT22;42288;52.182;21.156;2024-03-23T12:23:43;19.60;99.90
16980;DHT22;42288;52.182;21.156;2024-03-23T12:26:14;19.40;99.90
16980;DHT22;42288;52.182;21.156;2024-03-23T12:28:41;19.20;99.90
16980;DHT22;42288;52.182;21.156;2024-03-23T12:31:07;19.00;99.90
16980;DHT22;42288;52.182;21.156;2024-03-23T12:33:32;18.80;99.90
16980;DHT22;42288;52.182;21.156;2024-03-23T12:35:58;18.20;99.90
16980;DHT22;42288;52.182;21.156;2024-03-23T12:38:23;18.10;99.90
16980;DHT22;42288;52.182;21.156;2024-03-23T12:40:49;17.90;99.90
16980;DHT22;42288;52.182;21.156;2024-03-23T12:43:16;17.90;99.90
16980;DHT22;42288;52.182;21.156;2024-03-23T12:45:46;17.90;99.90
16980;DHT22;42288;52.182;21.156;2024-03-23T12:48:12;17.70;99.90
16980;DHT22;42288;52.182;21.156;2024-03-23T12:50:37;17.70;99.90
16980;DHT22;42288;52.182;21.156;2024-03-23T12:53:03;17.80;99.90
16980;DHT22;42288;52.182;21.156;2024-03-23T12:55:29;17.50;99.90
16980;DHT22;42288;52.182;21.156;2024-03-23T12:57:54;17.50;99.90
16980;DHT22;42288;52.182;21.156;2024-03-23T13:00:20;17.40;99.90
16980;DHT22;42288;52.182;21.156;2024-03-23T13:02:45;17.20;99.90
16980;DHT22;42288;52.182;21.156;2024-03-23T13:05:11;17.30;99.90
16980;DHT22;42288;52.182;21.156;2024-03-23T13:07:38;17.30;99.90
16980;DHT22;42288;52.182;21.156;2024-03-23T13:10:05;17.20;99.90
16980;DHT22;42288;52.182;21.156;2024-03-23T13:12:31;17.00;99.90
16980;DHT22;42288;52.182;21.156;2024-03-23T13:14:58;17.10;99.90
16980;DHT22;42288;52.182;21.156;2024-03-23T13:17:24;17.10;99.90
16980;DHT22;42288;52.182;21.156;2024-03-23T13:19:50;17.10;99.90
16980;DHT22;42288;52.182;21.156;2024-03-23T13:22:16;17.20;99.90
16980;DHT22;42288;52.182;21.156;2024-03-23T13:24:41;17.10;99.90
16980;DHT22;42288;52.182;21.156;2024-03-23T13:27:08;17.00;99.90
16980;DHT22;42288;52.182;21.156;2024-03-23T13:29:34;16.90;99.90
16980;DHT22;42288;52.182;21.156;2024-03-23T13:32:08;16.90;99.90
16980;DHT22;42288;52.182;21.156;2024-03-23T13:34:34;17.00;99.90
16980;DHT22;42288;52.182;21.156;2024-03-23T13:37:00;16.80;99.90
16980;DHT22;42288;52.182;21.156;2024-03-23T13:39:26;16.90;99.90
16980;DHT22;42288;52.182;21.156;2024-03-23T13:42:11;16.90;99.90
16980;DHT22;42288;52.182;21.156;2024-03-23T13:44:38;17.00;99.90
16980;DHT22;42288;52.182;21.156;2024-03-23T13:47:04;17.00;99.90
16980;DHT22;42288;52.182;21.156;2024-03-23T13:49:30;16.90;99.90
16980;DHT22;42288;52.182;21.156;2024-03-23T13:51:58;16.90;99.90
16980;DHT22;42288;52.182;21.156;2024-03-23T13:54:24;17.00;99.90
16980;DHT22;42288;52.182;21.156;2024-03-23T13:56:51;17.00;99.90
16980;DHT22;42288;52.182;21.156;2024-03-23T13:59:17;16.90;99.90
16980;DHT22;42288;52.182;21.156;2024-03-23T14:01:43;16.90;99.90
16980;DHT22;42288;52.182;21.156;2024-03-23T14:04:11;16.80;99.90
16980;DHT22;42288;52.182;21.156;2024-03-23T14:06:36;16.70;99.90
16980;DHT22;42288;52.182;21.156;2024-03-23T14:09:02;16.80;99.90
16980;DHT22;42288;52.182;21.156;2024-03-23T14:11:29;16.60;99.90
16980;DHT22;42288;52.182;21.156;2024-03-23T14:13:55;16.60;99.90
16980;DHT22;42288;52.182;21.156;2024-03-23T14:16:20;16.50;99.90
16980;DHT22;42288;52.182;21.156;2024-03-23T14:18:47;16.60;99.90
16980;DHT22;42288;52.182;21.156;2024-03-23T14:21:15;16.50;99.90
16980;DHT22;42288;52.182;21.156;2024-03-23T14:23:40;16.60;99.90
16980;DHT22;42288;52.182;21.156;2024-03-23T14:26:08;16.60;99.90
16980;DHT22;42288;52.182;21.156;2024-03-23T14:28:34;16.60;99.90
16980;DHT22;42288;52.182;21.156;2024-03-23T14:31:00;16.50;99.90
16980;DHT22;42288;52.182;21.156;2024-03-23T14:33:26;16.50;99.90
16980;DHT22;42288;52.182;21.156;2024-03-23T14:35:52;16.50;99.90
16980;DHT22;42288;52.182;21.156;2024-03-23T14:38:19;16.50;99.90
16980;DHT22;42288;52.182;21.156;2024-03-23T14:40:46;16.50;99.90
16980;DHT22;42288;52.182;21.156;2024-03-23T14:43:11;16.40;99.90
16980;DHT22;42288;52.182;21.156;2024-03-23T14:45:37;16.40;99.90
16980;DHT22;42288;52.182;21.156;2024-03-23T14:48:03;16.40;99.90
16980;DHT22;42288;52.182;21.156;2024-03-23T14:50:29;16.30;99.90
16980;DHT22;42288;52.182;21.156;2024-03-23T14:52:54;16.30;99.90
16980;DHT22;42288;52.182;21.156;2024-03-23T14:55:20;16.20;99.90
16980;DHT22;42288;52.182;21.156;2024-03-23T14:57:45;16.20;99.90
16980;DHT22;42288;52.182;21.156;2024-03-23T15:00:11;16.10;99.90
16980;DHT22;42288;52.182;21.156;2024-03-23T15:02:37;15.80;99.90
16980;DHT22;42288;52.182;21.156;2024-03-23T15:05:04;15.60;99.90
16980;DHT22;42288;52.182;21.156;2024-03-23T15:07:30;15.40;99.90
16980;DHT22;42288;52.182;21.156;2024-03-23T15:09:56;15.30;99.90
16980;DHT22;42288;52.182;21.156;2024-03-23T15:12:21;15.30;99.90
16980;DHT22;42288;52.182;21.156;2024-03-23T15:14:48;15.30;99.90
16980;DHT22;42288;52.182;21.156;2024-03-23T15:17:13;15.20;99.90
16980;DHT22;42288;52.182;21.156;2024-03-23T15:19:39;15.10;99.90
16980;DHT22;42288;52.182;21.156;2024-03-23T15:22:05;15.00;99.90
16980;DHT22;42288;52.182;21.156;2024-03-23T15:24:31;14.90;99.90
16980;DHT22;42288;52.182;21.156;2024-03-23T15:26:57;14.80;99.90
16980;DHT22;42288;52.182;21.156;2024-03-23T15:29:22;14.60;99.90
16980;DHT22;42288;52.182;21.156;2024-03-23T15:31:49;14.60;99.90
16980;DHT22;42288;52.182;21.156;2024-03-23T15:34:21;13.40;99.90
16980;DHT22;42288;52.182;21.156;2024-03-23T15:36:49;12.60;99.90
16980;DHT22;42288;52.182;21.156;2024-03-23T15:39:17;12.20;99.90
16980;DHT22;42288;52.182;21.156;2024-03-23T15:41:45;12.20;99.90
16980;DHT22;42288;52.182;21.156;2024-03-23T15:44:11;11.90;99.90
16980;DHT22;42288;52.182;21.156;2024-03-23T15:46:37;11.80;99.90
16980;DHT22;42288;52.182;21.156;2024-03-23T15:49:03;11.90;99.90
16980;DHT22;42288;52.182;21.156;2024-03-23T15:51:28;11.70;99.90
16980;DHT22;42288;52.182;21.156;2024-03-23T15:53:59;11.70;99.90
16980;DHT22;42288;52.182;21.156;2024-03-23T15:56:24;11.60;99.90
16980;DHT22;42288;52.182;21.156;2024-03-23T15:58:50;11.40;99.90
16980;DHT22;42288;52.182;21.156;2024-03-23T16:01:16;11.20;99.90
16980;DHT22;42288;52.182;21.156;2024-03-23T16:03:41;11.00;99.90
16980;DHT22;42288;52.182;21.156;2024-03-23T16:06:07;11.40;99.90
16980;DHT22;42288;52.182;21.156;2024-03-23T16:08:33;11.30;99.90
16980;DHT22;42288;52.182;21.156;2024-03-23T16:11:06;11.50;99.90
16980;DHT22;42288;52.182;21.156;2024-03-23T16:13:33;11.60;99.90
16980;DHT22;42288;52.182;21.156;2024-03-23T16:16:06;11.60;99.90
16980;DHT22;42288;52.182;21.156;2024-03-23T16:18:33;11.60;99.90